CYPX

Puvirnituq Airport

Puvirnituq, Quebec, Canada
TAF AMD CYPX 170331Z 1703/1712 15005KT P6SM IC SKC TEMPO 1703/1712 2SM IC HZ RMK FCST BASED ON AUTO OBS. NXT FCST BY 170600Z
Issued Valid From Valid To
Jan-17 @ 03:31 UTC
(an hour ago)
Jan-17 @ 03:00 UTC
(2 hours ago)
Jan-17 @ 12:00 UTC
(in 7 hours)
Jan-17 @ 03:00 to Jan-17 @ 12:00
TAF AMD CYPX 170331Z 1703/1712 15005KT P6SM IC SKC
Wind Visibility Clouds Conditions
150° at 5 knots Greater than 6 miles
  • Clear skies
  • Ice crystals
Temporary Jan-17 @ 03:00 to Jan-17 @ 12:00
TEMPO 1703/1712 2SM IC HZ RMK FCST BASED ON AUTO OBS. NXT FCST BY 170600Z
Visibility Conditions
2 miles
  • Ice crystals
  • Haze
TAF AMD CYPX 170331Z 1703/1712 15005KT P6SM IC SKC TEMPO 1703/1712 2SM IC HZ RMK FCST BASED ON AUTO OBS. NXT FCST BY 170600Z
Issued Jan-17 @ 03:31 UTC
(an hour ago)
Valid From Jan-17 @ 03:00 UTC
(2 hours ago)
Valid To Jan-17 @ 12:00 UTC
(in 7 hours)
Jan-17 @ 03:00 - Jan-17 @ 12:00
Wind Visibility
150° at 5 knots Greater than 6 miles
Clouds
  • Clear skies
Conditions
  • Ice crystals
Temporary Jan-17 @ 03:00 - Jan-17 @ 12:00
Conditions
  • Ice crystals
  • Haze